Shotley, Minnesota
Current Conditions -  °F | °C
As of 5:12 AM on Sunday 23 Nov 2014 (Local Time) from KVWU Reporting Station
Haze Haze  
Wind Chill: 34°   Ceiling: 200
Heat Index: 34°   Visibility: 2mi
Dew Point: 32°   Wind: 0mph
Humidity: 93%   Direction: NA
Pressure: 29.38"   Gusts: NA
Location:  47.9599°N, 94.5642°W
Report Text: KVWU 231112Z AUTO 00000KT 2SM BR OVC002 01/00 A2938 RMK AO2
Loading
Personal Weather Stations






























Interactive Weather Map New forecast layout! Learn more

10-Day Weather Forecast

Advertisements
Track Severe Weather on mobile